Time;durP1;ratioP1;P1;durP2;ratioP2;P2;SDS_P1;SDS_P2;PMS_P1;PMS_P2;Temp;Humidity;BMP_temperature;BMP_pressure;BME280_temperature;BME280_humidity;BME280_pressure;Samples;Min_cycle;Max_cycle;Signal;HPM_P1;HPM_P2
2020/12/09 00:02:07;;;;;;;34.73;11.55;;;;;;;-8.55;80.74;100416.80;1813630;79;21031;-70
2020/12/09 00:04:35;;;;;;;32.17;10.63;;;;;;;-8.56;80.90;100409.81;1813660;79;21593;-71
2020/12/09 00:07:03;;;;;;;34.43;11.78;;;;;;;-8.54;81.04;100413.14;1813693;79;21011;-71
2020/12/09 00:09:31;;;;;;;31.42;11.08;;;;;;;-8.56;80.72;100415.14;1813679;79;21802;-71
2020/12/09 00:11:59;;;;;;;28.25;10.60;;;;;;;-8.59;80.75;100408.83;1813578;79;20936;-71
2020/12/09 00:14:27;;;;;;;35.05;11.78;;;;;;;-8.58;81.13;100414.48;1813614;79;21467;-72
2020/12/09 00:16:55;;;;;;;33.95;10.32;;;;;;;-8.60;80.81;100407.16;1811978;79;21122;-69
2020/12/09 00:19:23;;;;;;;28.73;10.55;;;;;;;-8.60;80.71;100411.16;1808072;79;21582;-69
2020/12/09 00:21:51;;;;;;;32.65;11.15;;;;;;;-8.62;80.79;100408.66;1807965;79;21185;-69
2020/12/09 00:24:19;;;;;;;39.65;11.65;;;;;;;-8.62;80.84;100407.34;1807854;79;20940;-68
2020/12/09 00:26:46;;;;;;;26.85;10.20;;;;;;;-8.61;80.80;100409.50;1807968;79;21154;-68
2020/12/09 00:29:14;;;;;;;29.48;11.38;;;;;;;-8.62;80.85;100408.66;1807926;79;21122;-68
2020/12/09 00:31:42;;;;;;;34.18;11.63;;;;;;;-8.61;80.97;100408.16;1807896;78;21062;-71
2020/12/09 00:34:10;;;;;;;32.38;11.80;;;;;;;-8.60;80.77;100405.83;1807938;79;21205;-71
2020/12/09 00:36:39;;;;;;;32.42;10.68;;;;;;;-8.61;81.11;100401.01;1807853;79;21506;-71
2020/12/09 00:39:07;;;;;;;31.87;9.90;;;;;;;-8.58;81.20;100402.50;1807898;79;21011;-71
2020/12/09 00:41:34;;;;;;;28.52;10.05;;;;;;;-8.56;80.90;100403.16;1807897;79;21545;-71
2020/12/09 00:44:02;;;;;;;24.55;10.25;;;;;;;-8.57;80.77;100401.00;1807951;79;21047;-71
2020/12/09 00:46:30;;;;;;;26.15;10.55;;;;;;;-8.55;81.22;100406.98;1807926;79;21133;-70
2020/12/09 00:48:59;;;;;;;34.00;10.28;;;;;;;-8.51;81.04;100407.47;1807691;79;20960;-71
2020/12/09 00:51:28;;;;;;;28.55;10.72;;;;;;;-8.51;81.04;100406.14;1807985;79;21466;-71
2020/12/09 00:53:56;;;;;;;27.40;9.45;;;;;;;-8.48;81.38;100405.80;1807910;79;21011;-70
2020/12/09 00:56:27;;;;;;;30.30;11.90;;;;;;;-8.47;81.05;100401.62;1807899;79;20972;-70
2020/12/09 00:58:57;;;;;;;34.30;9.10;;;;;;;-8.45;80.73;100404.13;1807931;79;21193;-71
2020/12/09 01:01:26;;;;;;;25.23;9.15;;;;;;;-8.46;80.96;100398.47;1807969;79;21575;-72
2020/12/09 01:03:57;;;;;;;23.27;9.03;;;;;;;-8.46;80.84;100401.12;1807680;79;21019;-73
2020/12/09 01:06:25;;;;;;;33.50;10.55;;;;;;;-8.48;80.61;100395.14;1807899;79;21015;-73
2020/12/09 01:08:53;;;;;;;30.65;10.98;;;;;;;-8.46;82.14;100390.48;1807953;79;21047;-72
2020/12/09 01:11:22;;;;;;;28.10;9.35;;;;;;;-8.43;81.55;100392.30;1807915;79;21398;-72
2020/12/09 01:13:50;;;;;;;26.10;9.25;;;;;;;-8.43;81.06;100387.47;1807912;79;21471;-71
2020/12/09 01:16:18;;;;;;;30.55;10.55;;;;;;;-8.44;81.04;100386.64;1807879;79;20924;-71
2020/12/09 01:18:48;;;;;;;27.65;9.53;;;;;;;-8.45;80.92;100392.97;1807787;79;21625;-71
2020/12/09 01:21:18;;;;;;;32.67;10.50;;;;;;;-8.46;80.76;100391.81;1807944;79;21007;-71
2020/12/09 01:23:45;;;;;;;32.00;11.43;;;;;;;-8.48;80.74;100389.31;1753223;79;21168;-71
2020/12/09 01:26:13;;;;;;;30.00;8.30;;;;;;;-8.45;80.91;100392.14;1807825;79;21058;-71
2020/12/09 01:28:41;;;;;;;24.90;8.75;;;;;;;-8.45;80.69;100392.14;1807867;79;20928;-71
2020/12/09 01:31:08;;;;;;;31.27;8.78;;;;;;;-8.44;80.80;100396.46;1807796;78;21078;-72
2020/12/09 01:33:36;;;;;;;28.30;10.38;;;;;;;-8.42;81.18;100397.13;1807925;79;20995;-70
2020/12/09 01:36:04;;;;;;;23.90;8.70;;;;;;;-8.41;80.93;100388.95;1807838;79;21901;-69
2020/12/09 01:38:31;;;;;;;24.07;9.40;;;;;;;-8.40;80.87;100381.30;1807864;79;21062;-69
2020/12/09 01:40:58;;;;;;;32.00;10.53;;;;;;;-8.34;81.20;100390.43;1807876;79;20881;-72
2020/12/09 01:43:26;;;;;;;28.40;9.30;;;;;;;-8.29;81.03;100390.71;1807853;79;20987;-71
2020/12/09 01:45:53;;;;;;;34.35;10.32;;;;;;;-8.26;80.84;100386.37;1807951;79;21158;-71
2020/12/09 01:48:20;;;;;;;25.08;8.28;;;;;;;-8.19;81.86;100380.67;1807959;79;20995;-72
2020/12/09 01:50:48;;;;;;;25.72;8.95;;;;;;;-8.12;81.37;100383.48;1807834;79;20955;-72
2020/12/09 01:53:16;;;;;;;27.65;9.50;;;;;;;-8.09;80.83;100382.63;1807899;79;20937;-72
2020/12/09 01:55:43;;;;;;;32.95;10.38;;;;;;;-8.08;80.80;100380.25;1807841;79;21023;-72
2020/12/09 01:58:10;;;;;;;25.52;9.63;;;;;;;-8.06;80.85;100378.25;1807868;79;21086;-72
2020/12/09 02:00:38;;;;;;;27.50;9.53;;;;;;;-8.00;80.94;100380.21;1753783;79;21148;-72
2020/12/09 02:03:06;;;;;;;30.92;10.05;;;;;;;-7.93;80.75;100384.34;1807954;79;21107;-72
2020/12/09 02:05:33;;;;;;;24.00;9.50;;;;;;;-7.90;80.99;100384.48;1807865;79;21142;-71
2020/12/09 02:08:01;;;;;;;24.23;9.53;;;;;;;-7.88;80.42;100381.14;1807858;79;20916;-71
2020/12/09 02:10:30;;;;;;;29.77;10.38;;;;;;;-7.88;80.09;100377.98;1807883;79;20939;-72
2020/12/09 02:12:59;;;;;;;36.53;10.53;;;;;;;-7.87;80.16;100385.47;1807976;79;21162;-74
2020/12/09 02:15:27;;;;;;;21.23;9.03;;;;;;;-7.87;80.01;100384.97;1807773;79;20980;-73
2020/12/09 02:17:54;;;;;;;25.20;9.70;;;;;;;-7.85;80.06;100384.79;1807727;79;20972;-74
2020/12/09 02:20:22;;;;;;;35.17;12.00;;;;;;;-7.83;80.05;100392.11;1807852;79;20936;-74
2020/12/09 02:22:54;;;;;;;28.27;11.08;;;;;;;-7.80;79.99;100393.09;1807971;79;21452;-75
2020/12/09 02:25:23;;;;;;;22.32;9.25;;;;;;;-7.79;80.03;100393.42;1807849;79;21999;-74
2020/12/09 02:27:51;;;;;;;26.00;8.90;;;;;;;-7.76;79.77;100397.89;1807750;79;20943;-74
2020/12/09 02:30:19;;;;;;;29.70;11.30;;;;;;;-7.74;79.59;100402.55;1807831;78;21138;-74
2020/12/09 02:32:47;;;;;;;25.37;9.58;;;;;;;-7.72;79.64;100400.53;1807834;79;20983;-73
2020/12/09 02:35:15;;;;;;;27.20;9.33;;;;;;;-7.69;79.75;100404.69;1807857;79;21119;-74
2020/12/09 02:37:43;;;;;;;24.10;9.18;;;;;;;-7.66;79.93;100405.16;1807882;79;21355;-74
2020/12/09 02:40:10;;;;;;;24.57;7.87;;;;;;;-7.61;79.89;100411.30;1807999;79;20937;-74
2020/12/09 02:42:39;;;;;;;30.52;9.65;;;;;;;-7.59;79.59;100407.95;1807970;79;20916;-74
2020/12/09 02:45:06;;;;;;;23.00;8.55;;;;;;;-7.57;79.80;100404.60;1808024;79;20944;-74
2020/12/09 02:47:34;;;;;;;28.25;9.75;;;;;;;-7.54;79.65;100408.25;1808022;79;21102;-75
2020/12/09 02:50:02;;;;;;;23.32;8.93;;;;;;;-7.50;79.73;100404.69;1808023;79;21463;-73
2020/12/09 02:52:29;;;;;;;27.65;9.35;;;;;;;-7.45;79.73;100411.16;1807940;78;20940;-73
2020/12/09 02:54:57;;;;;;;25.97;9.73;;;;;;;-7.41;79.83;100410.30;1808065;79;21534;-73
2020/12/09 02:57:26;;;;;;;30.80;10.32;;;;;;;-7.36;79.58;100408.75;1807996;79;21569;-74
2020/12/09 02:59:54;;;;;;;21.40;8.53;;;;;;;-7.33;79.65;100404.89;1808077;79;21126;-73
2020/12/09 03:02:22;;;;;;;27.30;9.60;;;;;;;-7.27;79.55;100411.36;1808012;79;21283;-74
2020/12/09 03:04:49;;;;;;;25.08;9.53;;;;;;;-7.23;79.55;100412.66;1807962;78;20928;-74
2020/12/09 03:07:17;;;;;;;21.75;9.05;;;;;;;-7.20;79.56;100409.63;1808026;79;21034;-73
2020/12/09 03:09:45;;;;;;;19.35;8.78;;;;;;;-7.16;79.66;100405.09;1807976;79;21134;-73
2020/12/09 03:12:12;;;;;;;25.20;9.58;;;;;;;-7.11;79.48;100400.55;1808020;79;21043;-73
2020/12/09 03:14:41;;;;;;;21.70;8.73;;;;;;;-7.07;79.93;100404.01;1807992;79;21490;-73
2020/12/09 03:17:09;;;;;;;26.50;9.55;;;;;;;-7.01;79.54;100407.80;1807981;79;21498;-72
2020/12/09 03:19:38;;;;;;;24.12;9.08;;;;;;;-6.98;79.36;100409.27;1813201;79;20963;-71
2020/12/09 03:22:07;;;;;;;23.38;9.45;;;;;;;-6.97;79.20;100403.75;1813693;79;21521;-71
2020/12/09 03:24:34;;;;;;;26.02;9.60;;;;;;;-6.92;79.78;100409.86;1813721;79;20976;-71
2020/12/09 03:27:03;;;;;;;25.72;7.75;;;;;;;-6.89;79.25;100408.16;1813687;79;20999;-71
2020/12/09 03:29:30;;;;;;;19.02;7.75;;;;;;;-6.88;79.17;100409.31;1813632;79;21502;-71
2020/12/09 03:31:58;;;;;;;18.77;7.67;;;;;;;-6.83;79.37;100409.59;1813608;77;20948;-71
2020/12/09 03:34:25;;;;;;;22.40;8.00;;;;;;;-6.80;78.83;100397.22;1813672;79;20998;-71
2020/12/09 03:36:53;;;;;;;18.25;6.90;;;;;;;-6.80;78.82;100393.21;1813705;79;21066;-71
2020/12/09 03:39:20;;;;;;;26.52;7.72;;;;;;;-6.76;79.18;100388.33;1813784;79;21185;-71
2020/12/09 03:41:48;;;;;;;24.95;8.28;;;;;;;-6.74;78.60;100391.66;1813658;79;20951;-72
2020/12/09 03:44:15;;;;;;;27.48;7.58;;;;;;;-6.72;78.82;100387.78;1813693;79;21553;-71
2020/12/09 03:46:44;;;;;;;18.27;6.58;;;;;;;-6.68;79.07;100393.59;1813631;79;21174;-71
2020/12/09 03:49:11;;;;;;;17.15;6.17;;;;;;;-6.65;78.65;100386.55;1813788;79;21038;-71
2020/12/09 03:51:39;;;;;;;19.02;6.37;;;;;;;-6.65;78.40;100383.88;1813623;79;21334;-71
2020/12/09 03:54:06;;;;;;;19.95;6.65;;;;;;;-6.63;78.16;100389.03;1813617;79;21553;-73
2020/12/09 03:56:34;;;;;;;16.80;6.55;;;;;;;-6.60;78.49;100387.34;1813642;78;21039;-72
2020/12/09 03:59:01;;;;;;;21.17;7.33;;;;;;;-6.58;78.31;100389.31;1813670;79;21494;-73
2020/12/09 04:01:29;;;;;;;13.98;6.85;;;;;;;-6.58;77.87;100387.47;1813679;79;21455;-73
2020/12/09 04:03:56;;;;;;;21.55;6.42;;;;;;;-6.56;78.40;100388.12;1813674;79;21171;-74
2020/12/09 04:06:24;;;;;;;17.65;6.35;;;;;;;-6.53;77.96;100384.25;1813593;79;21657;-72
2020/12/09 04:08:51;;;;;;;16.90;6.60;;;;;;;-6.53;77.80;100385.08;1813657;79;20940;-72
2020/12/09 04:11:19;;;;;;;17.32;7.65;;;;;;;-6.50;78.74;100379.87;1813734;79;21470;-72
2020/12/09 04:13:47;;;;;;;13.53;6.25;;;;;;;-6.48;78.20;100377.34;1813687;79;21146;-72
2020/12/09 04:16:15;;;;;;;19.80;6.85;;;;;;;-6.46;78.17;100375.31;1813671;79;21358;-73
2020/12/09 04:18:44;;;;;;;17.82;6.47;;;;;;;-6.44;77.82;100376.47;1807871;78;21010;-70
2020/12/09 04:21:11;;;;;;;21.93;7.08;;;;;;;-6.42;77.93;100375.77;1800015;79;20935;-74
2020/12/09 04:23:39;;;;;;;20.50;6.92;;;;;;;-6.41;77.66;100385.44;1799985;79;21985;-73
2020/12/09 04:26:07;;;;;;;19.80;7.45;;;;;;;-6.37;78.37;100384.06;1800093;79;21130;-73
2020/12/09 04:28:34;;;;;;;17.85;7.53;;;;;;;-6.33;78.13;100386.66;1790453;79;21106;-74
2020/12/09 04:31:02;;;;;;;20.48;6.80;;;;;;;-6.31;77.78;100387.30;1717251;83;21526;-72
2020/12/09 04:33:30;;;;;;;24.85;6.80;;;;;;;-6.30;78.61;100382.27;1756541;81;21479;-74
2020/12/09 04:35:57;;;;;;;18.02;7.60;;;;;;;-6.26;78.09;100386.23;1753732;81;21151;-74
2020/12/09 04:38:25;;;;;;;20.65;6.92;;;;;;;-6.24;77.88;100386.05;1762686;81;21009;-71
2020/12/09 04:40:52;;;;;;;14.65;6.25;;;;;;;-6.24;78.55;100383.37;1713931;83;21816;-75
2020/12/09 04:43:20;;;;;;;21.52;7.12;;;;;;;-6.20;78.58;100379.31;1710470;82;20973;-74
2020/12/09 04:45:48;;;;;;;22.93;7.12;;;;;;;-6.17;77.65;100381.61;1714174;82;21189;-74
2020/12/09 04:48:16;;;;;;;18.27;6.30;;;;;;;-6.20;77.68;100381.48;1761947;81;21107;-74
2020/12/09 04:51:11;;;;;;;20.70;7.67;;;;;;;-6.20;78.06;100384.15;1721182;83;21222;-73
2020/12/09 04:53:42;;;;;;;18.05;7.67;;;;;;;-6.20;77.53;100377.47;1735870;81;23598;-71
2020/12/09 04:56:10;;;;;;;16.12;6.83;;;;;;;-6.22;77.43;100375.48;1732341;81;20996;-71
2020/12/09 04:58:43;;;;;;;17.45;7.53;;;;;;;-6.23;77.72;100374.34;1734293;81;21132;-75
2020/12/09 05:01:14;;;;;;;20.20;7.33;;;;;;;-6.22;77.81;100382.67;1759403;81;21068;-73
2020/12/09 05:03:48;;;;;;;25.85;8.75;;;;;;;-6.21;77.32;100381.66;1722722;82;21494;-71
2020/12/09 05:06:18;;;;;;;27.58;7.20;;;;;;;-6.22;78.03;100380.84;1729499;82;21365;-71
2020/12/09 05:08:56;;;;;;;15.28;6.33;;;;;;;-6.23;77.77;100387.70;1763341;81;21029;-71
2020/12/09 05:11:28;;;;;;;23.83;8.18;;;;;;;-6.23;77.60;100391.71;1720269;83;21075;-72
2020/12/09 05:13:57;;;;;;;23.63;7.67;;;;;;;-6.23;78.14;100391.20;1735302;81;21159;-71
2020/12/09 05:16:24;;;;;;;18.55;6.83;;;;;;;-6.22;78.10;100392.86;1732613;81;21222;-73
2020/12/09 05:19:04;;;;;;;17.10;7.50;;;;;;;-6.21;77.88;100392.35;1764226;80;21285;-74
2020/12/09 05:21:32;;;;;;;21.20;7.62;;;;;;;-6.20;78.63;100395.34;1748104;80;20961;-73
2020/12/09 05:24:01;;;;;;;25.65;7.80;;;;;;;-6.15;78.27;100392.44;1716280;81;21524;-73
2020/12/09 05:26:36;;;;;;;22.05;7.85;;;;;;;-6.14;78.06;100394.09;1758083;81;21116;-72
2020/12/09 05:29:11;;;;;;;24.18;7.62;;;;;;;-6.17;78.07;100382.44;1757623;81;21090;-72
2020/12/09 05:31:43;;;;;;;21.60;8.43;;;;;;;-6.17;78.00;100391.80;1757582;81;21396;-75
2020/12/09 05:34:33;;;;;;;21.93;8.23;;;;;;;-6.16;78.09;100392.63;1757494;81;20993;-73
2020/12/09 05:37:03;;;;;;;19.50;7.65;;;;;;;-6.15;78.78;100394.28;1757547;81;20934;-73
2020/12/09 05:39:31;;;;;;;21.17;7.62;;;;;;;-6.12;78.30;100395.25;1757690;81;21084;-71
2020/12/09 05:42:14;;;;;;;21.17;8.80;;;;;;;-6.14;78.01;100391.42;1757720;81;21494;-72
2020/12/09 05:44:45;;;;;;;23.90;7.92;;;;;;;-6.15;78.39;100394.28;1737257;81;21198;-72
2020/12/09 05:47:13;;;;;;;27.70;7.80;;;;;;;-6.14;78.68;100396.77;1757662;81;21509;-75
2020/12/09 05:49:42;;;;;;;24.00;8.55;;;;;;;-6.14;78.38;100393.27;1757573;81;21505;-74
2020/12/09 05:52:19;;;;;;;23.38;8.45;;;;;;;-6.12;78.52;100396.08;1757675;81;21521;-72
2020/12/09 05:54:51;;;;;;;18.75;7.33;;;;;;;-6.12;78.71;100396.08;1757631;81;20960;-77
2020/12/09 05:57:24;;;;;;;20.45;8.25;;;;;;;-6.10;78.44;100396.72;1757679;80;22238;-74
2020/12/09 05:59:55;;;;;;;22.80;7.85;;;;;;;-6.11;78.54;100406.26;1757569;81;21017;-74
2020/12/09 06:02:26;;;;;;;26.25;8.18;;;;;;;-6.09;79.05;100409.58;1757597;80;21069;-78
2020/12/09 06:05:01;;;;;;;20.90;8.38;;;;;;;-6.08;78.77;100409.39;1757064;80;21013;-78
2020/12/09 06:07:31;;;;;;;30.68;10.72;;;;;;;-6.07;79.08;100404.88;1757553;81;21109;-83
2020/12/09 06:10:19;;;;;;;26.97;8.53;;;;;;;-6.07;79.01;100397.68;1757607;81;21372;-78
2020/12/09 06:13:00;;;;;;;18.92;7.42;;;;;;;-6.08;78.83;100395.20;1757425;81;21559;-79
2020/12/09 06:15:30;;;;;;;21.62;7.33;;;;;;;-6.10;79.19;100398.05;1758380;80;21132;-75
2020/12/09 06:18:10;;;;;;;23.57;8.73;;;;;;;-6.09;79.53;100390.86;1757788;81;20969;-82
2020/12/09 06:20:40;;;;;;;21.95;8.65;;;;;;;-6.08;79.02;100394.69;1737830;81;21065;-81
2020/12/09 06:23:14;;;;;;;23.65;9.20;;;;;;;-6.11;78.75;100395.06;1735841;82;21206;-79
2020/12/09 06:25:43;;;;;;;22.73;8.63;;;;;;;-6.13;79.10;100395.75;1735867;82;20935;-87
2020/12/09 06:28:18;;;;;;;19.48;8.28;;;;;;;-6.11;79.39;100402.25;1735769;81;21044;-78
2020/12/09 06:30:49;;;;;;;22.40;8.70;;;;;;;-6.11;79.37;100400.41;1735761;82;20978;-79
2020/12/09 06:33:40;;;;;;;30.80;8.75;;;;;;;-6.10;79.55;100402.06;1735859;81;21164;-78
2020/12/09 06:36:24;;;;;;;24.10;9.23;;;;;;;-6.07;79.72;100405.70;1735777;82;21417;-74
2020/12/09 06:39:16;;;;;;;27.70;9.03;;;;;;;-6.06;79.59;100393.16;1735770;82;20957;-76
2020/12/09 06:41:56;;;;;;;25.27;9.25;;;;;;;-6.05;80.37;100399.66;1735960;81;21025;-75
2020/12/09 06:44:29;;;;;;;22.35;8.13;;;;;;;-6.02;80.42;100397.12;1733998;82;21187;-79
2020/12/09 06:46:54;;;;;;;26.23;8.40;;;;;;;-6.01;80.24;100398.27;1735605;82;21186;-76
2020/12/09 06:49:42;;;;;;;33.02;9.03;;;;;;;-6.00;80.43;100397.25;1735861;82;21495;-77
2020/12/09 06:52:15;;;;;;;26.93;10.40;;;;;;;-6.00;80.33;100401.27;1735744;82;21010;-82
2020/12/09 06:54:47;;;;;;;28.25;10.35;;;;;;;-5.99;80.90;100394.07;1736182;82;20929;-81
2020/12/09 07:00:18;;;;;;;26.10;9.93;;;;;;;-5.90;81.26;100396.13;1890189;76;22750;-75
2020/12/09 07:02:47;;;;;;;27.87;9.63;;;;;;;-5.92;81.25;100398.98;1861807;77;20931;-84
2020/12/09 07:05:22;;;;;;;32.60;11.22;;;;;;;-5.91;81.41;100398.48;1861145;77;21353;-75
2020/12/09 07:07:50;;;;;;;32.75;11.93;;;;;;;-5.91;81.63;100410.52;1860757;77;20995;-77
2020/12/09 07:10:23;;;;;;;26.75;10.48;;;;;;;-5.89;82.58;100415.16;1861033;77;21157;-82
2020/12/09 07:13:02;;;;;;;27.50;9.80;;;;;;;-5.88;82.37;100424.30;1861034;77;20979;-80
2020/12/09 07:15:29;;;;;;;24.90;9.60;;;;;;;-5.88;82.09;100430.99;1861090;77;20990;-77
2020/12/09 07:17:57;;;;;;;29.70;10.93;;;;;;;-5.92;82.10;100419.55;1859885;77;21372;-75
2020/12/09 07:20:24;;;;;;;25.90;10.15;;;;;;;-5.94;83.05;100421.08;1860914;77;21537;-80
2020/12/09 07:22:52;;;;;;;27.60;9.90;;;;;;;-5.94;82.88;100425.09;1861006;77;20970;-83
2020/12/09 07:25:20;;;;;;;32.50;10.80;;;;;;;-5.92;83.16;100422.22;1787956;80;20993;-74
2020/12/09 07:27:48;;;;;;;40.95;11.40;;;;;;;-5.85;83.73;100421.77;1786117;80;21043;-74
2020/12/09 07:30:17;;;;;;;37.67;12.07;;;;;;;-5.80;83.52;100425.53;1797203;78;21560;-79
2020/12/09 07:32:49;;;;;;;29.92;11.22;;;;;;;-5.77;83.50;100413.59;1743646;81;20954;-81
2020/12/09 07:35:18;;;;;;;28.67;10.43;;;;;;;-5.77;83.41;100421.11;1756554;81;21025;-77
2020/12/09 07:37:51;;;;;;;25.30;10.23;;;;;;;-5.75;83.59;100419.08;1756426;81;21025;-74
2020/12/09 07:40:30;;;;;;;33.63;10.60;;;;;;;-5.77;83.51;100421.62;1756568;81;21001;-76
2020/12/09 07:43:13;;;;;;;29.35;9.70;;;;;;;-5.75;83.64;100426.27;1756410;81;21330;-76
2020/12/09 07:45:44;;;;;;;27.82;9.90;;;;;;;-5.73;84.02;100420.23;1751773;81;21018;-71
2020/12/09 07:48:16;;;;;;;33.88;10.53;;;;;;;-5.74;83.88;100426.09;1751437;81;20914;-74
2020/12/09 07:50:53;;;;;;;28.17;11.40;;;;;;;-5.71;84.53;100425.71;1755123;81;20938;-79
2020/12/09 07:53:20;;;;;;;33.58;11.22;;;;;;;-5.66;84.70;100429.16;1728915;81;20997;-76
2020/12/09 07:55:47;;;;;;;37.35;12.45;;;;;;;-5.62;84.32;100430.44;1756440;81;21381;-76
2020/12/09 07:58:17;;;;;;;27.00;10.35;;;;;;;-5.59;84.81;100422.03;1756091;81;21659;-74
2020/12/09 08:00:47;;;;;;;30.35;12.23;;;;;;;-5.57;84.70;100424.52;1756346;81;20898;-78
2020/12/09 08:03:22;;;;;;;40.67;12.75;;;;;;;-5.58;84.58;100418.34;1756098;81;20898;-73
2020/12/09 08:05:51;;;;;;;34.13;11.40;;;;;;;-5.59;85.10;100421.20;1755099;81;21117;-75
2020/12/09 08:08:20;;;;;;;34.75;11.68;;;;;;;-5.57;85.66;100420.00;1753044;81;21209;-76
2020/12/09 08:10:49;;;;;;;34.65;11.80;;;;;;;-5.57;85.26;100421.34;1742028;81;21510;-76
2020/12/09 08:13:25;;;;;;;44.23;13.85;;;;;;;-5.56;85.40;100414.14;1759007;81;20899;-83
2020/12/09 08:16:05;;;;;;;37.17;12.13;;;;;;;-5.55;85.63;100413.95;1750771;82;21087;-77
2020/12/09 08:18:32;;;;;;;45.65;16.05;;;;;;;-5.55;85.63;100416.63;1759346;81;21587;-78
2020/12/09 08:20:59;;;;;;;44.67;14.83;;;;;;;-5.58;85.70;100417.00;1750731;82;21665;-81
2020/12/09 08:23:43;;;;;;;42.67;16.02;;;;;;;-5.56;86.04;100423.50;1759035;81;20950;-81
2020/12/09 08:26:15;;;;;;;35.43;14.25;;;;;;;-5.55;85.85;100419.30;1750848;82;21585;-72
2020/12/09 08:28:46;;;;;;;37.05;13.80;;;;;;;-5.50;85.95;100420.07;1756901;81;21069;-76
2020/12/09 08:31:19;;;;;;;42.48;14.68;;;;;;;-5.45;86.69;100418.48;1766356;80;20946;-76
2020/12/09 08:33:46;;;;;;;;;;;;;;;-5.41;85.82;100418.42;1799562;79;21271;-77
2020/12/09 08:36:14;;;;;;;41.68;15.45;;;;;;;-5.37;85.82;100418.36;1750658;82;20157;-84
2020/12/09 08:38:46;;;;;;;42.98;15.18;;;;;;;-5.32;86.08;100408.42;1750754;82;20959;-73
2020/12/09 08:41:31;;;;;;;41.30;14.18;;;;;;;-5.26;85.72;100413.52;1757926;81;20946;-73
2020/12/09 08:44:03;;;;;;;41.58;14.75;;;;;;;-5.22;85.26;100418.30;1750745;81;20997;-77
2020/12/09 08:46:31;;;;;;;39.33;14.95;;;;;;;-5.17;85.49;100412.33;1759125;81;22106;-78
2020/12/09 08:48:58;;;;;;;39.13;15.10;;;;;;;-5.18;85.27;100404.81;1750629;82;20970;-75
2020/12/09 08:51:31;;;;;;;45.73;16.73;;;;;;;-5.16;85.22;100405.95;1750689;82;20930;-73
2020/12/09 08:54:00;;;;;;;41.23;14.07;;;;;;;-5.13;85.34;100407.73;1751237;82;21037;-74
2020/12/09 08:56:32;;;;;;;47.93;16.50;;;;;;;-5.09;85.41;100416.22;1789040;80;20946;-74
2020/12/09 08:59:03;;;;;;;46.88;17.77;;;;;;;-5.05;85.05;100414.30;1790176;80;22110;-74
2020/12/09 09:01:38;;;;;;;47.05;16.57;;;;;;;-5.02;84.85;100415.77;1790329;80;26358;-73
2020/12/09 09:04:10;;;;;;;43.70;17.75;;;;;;;-4.99;84.37;100419.39;1790233;80;20881;-74
2020/12/09 09:06:37;;;;;;;51.25;18.20;;;;;;;-4.99;83.63;100418.05;1789439;80;28238;-79
2020/12/09 09:09:07;;;;;;;46.00;15.75;;;;;;;-5.01;83.65;100418.25;1790290;80;20933;-77
2020/12/09 09:11:34;;;;;;;54.33;17.45;;;;;;;-5.00;83.81;100416.40;1785135;80;21361;-80
2020/12/09 09:14:02;;;;;;;46.70;17.95;;;;;;;-4.99;83.33;100414.03;1785148;80;20957;-79
2020/12/09 09:16:30;;;;;;;48.87;18.20;;;;;;;-4.98;83.58;100414.35;1785268;80;20926;-79
2020/12/09 09:18:58;;;;;;;43.48;15.85;;;;;;;-4.93;84.34;100407.08;1785086;80;20985;-82
2020/12/09 09:21:26;;;;;;;56.68;20.40;;;;;;;-4.90;83.36;100415.55;1785223;80;20894;-87
2020/12/09 09:23:54;;;;;;;43.20;18.35;;;;;;;-4.90;83.97;100415.55;1726741;80;21372;-83
2020/12/09 09:26:21;;;;;;;38.15;16.00;;;;;;;-4.85;84.67;100419.82;1763182;80;21057;-81
2020/12/09 09:28:49;;;;;;;47.98;18.30;;;;;;;-4.79;84.01;100413.69;1790187;80;21029;-77
2020/12/09 09:31:16;;;;;;;50.43;17.25;;;;;;;-4.78;83.87;100405.97;1790125;80;20922;-75
2020/12/09 09:33:44;;;;;;;41.88;17.27;;;;;;;-4.77;84.23;100418.34;1775141;80;20931;-82
2020/12/09 09:36:12;;;;;;;47.90;17.62;;;;;;;-4.70;85.02;100412.52;1757295;81;21521;-77
2020/12/09 09:38:39;;;;;;;49.77;20.30;;;;;;;-4.62;84.30;100410.17;1757286;81;21568;-83
2020/12/09 09:41:08;;;;;;;41.13;15.18;;;;;;;-4.58;84.04;100411.94;1757359;80;20923;-79
2020/12/09 09:43:35;;;;;;;43.85;17.00;;;;;;;-4.56;83.60;100401.86;1757335;81;20942;-78
2020/12/09 09:46:03;;;;;;;45.30;17.37;;;;;;;-4.58;83.19;100394.02;1757391;81;20943;-79
2020/12/09 09:48:31;;;;;;;39.48;16.25;;;;;;;-4.58;83.29;100393.19;1757228;81;22269;-79
2020/12/09 09:50:58;;;;;;;43.13;17.10;;;;;;;-4.58;83.23;100391.33;1757307;81;21029;-78
2020/12/09 09:53:26;;;;;;;40.45;17.15;;;;;;;-4.58;83.58;100381.95;1757334;81;21018;-79
2020/12/09 09:55:53;;;;;;;44.88;18.23;;;;;;;-4.57;83.40;100390.82;1757325;81;20931;-79
2020/12/09 09:58:21;;;;;;;52.48;19.17;;;;;;;-4.59;83.28;100379.47;1757383;81;20978;-81
2020/12/09 10:00:49;;;;;;;42.83;17.37;;;;;;;-4.57;83.36;100378.77;1791853;78;21567;-80
2020/12/09 10:03:16;;;;;;;47.05;18.25;;;;;;;-4.57;83.08;100368.87;1793880;80;20953;-80
2020/12/09 10:05:43;;;;;;;49.40;18.12;;;;;;;-4.54;83.57;100384.56;1793785;80;20925;-80
2020/12/09 10:08:11;;;;;;;44.90;16.45;;;;;;;-4.52;83.73;100377.15;1793797;80;20930;-80
2020/12/09 10:10:39;;;;;;;53.15;19.98;;;;;;;-4.50;83.33;100379.63;1793817;79;21036;-80
2020/12/09 10:13:07;;;;;;;45.75;17.87;;;;;;;-4.47;83.66;100373.88;1793846;80;21422;-79
2020/12/09 10:15:37;;;;;;;49.65;18.95;;;;;;;-4.44;83.27;100367.61;1767803;80;20961;-77
2020/12/09 10:18:05;;;;;;;44.95;17.62;;;;;;;-4.44;82.96;100372.97;1793692;80;21503;-79
2020/12/09 10:20:32;;;;;;;45.40;18.57;;;;;;;-4.45;83.45;100375.34;1793745;80;21000;-80
2020/12/09 10:22:59;;;;;;;42.85;16.52;;;;;;;-4.47;83.12;100376.56;1793827;80;20973;-80
2020/12/09 10:25:27;;;;;;;45.58;17.85;;;;;;;-4.48;82.75;100370.38;1793804;80;21369;-80
2020/12/09 10:27:55;;;;;;;45.15;18.77;;;;;;;-4.48;82.86;100378.92;1793725;80;20956;-79
2020/12/09 10:30:23;;;;;;;50.03;18.95;;;;;;;-4.47;83.74;100374.70;1793771;80;20945;-76
2020/12/09 10:32:50;;;;;;;41.15;17.02;;;;;;;-4.42;83.46;100368.75;1793762;80;21114;-80
2020/12/09 10:35:18;;;;;;;38.73;15.43;;;;;;;-4.41;82.97;100370.41;1792424;80;21064;-78
2020/12/09 10:37:45;;;;;;;34.38;16.17;;;;;;;-4.44;82.56;100379.67;1793807;80;21779;-76
2020/12/09 10:40:12;;;;;;;43.45;17.20;;;;;;;-4.46;82.96;100375.53;1793727;80;21127;-78
2020/12/09 10:42:40;;;;;;;45.23;17.70;;;;;;;-4.42;83.10;100372.27;1793860;80;20978;-77
2020/12/09 10:45:08;;;;;;;44.90;18.57;;;;;;;-4.40;83.13;100380.94;1793720;80;20939;-77
2020/12/09 10:47:36;;;;;;;48.23;19.50;;;;;;;-4.37;83.29;100376.52;1793812;80;20997;-77
2020/12/09 10:50:04;;;;;;;48.20;19.65;;;;;;;-4.35;83.14;100381.68;1794007;80;22358;-77
2020/12/09 10:52:32;;;;;;;56.42;21.02;;;;;;;-4.37;83.32;100379.20;1793728;79;20986;-78
2020/12/09 10:55:00;;;;;;;52.27;18.57;;;;;;;-4.38;82.97;100368.67;1793746;80;20989;-78
2020/12/09 10:57:28;;;;;;;59.90;21.75;;;;;;;-4.41;83.58;100379.27;1794070;80;20883;-77
2020/12/09 10:59:56;;;;;;;55.12;22.62;;;;;;;-4.37;83.58;100371.16;1795749;79;20922;-77
2020/12/09 11:02:23;;;;;;;52.15;19.77;;;;;;;-4.34;84.02;100375.30;1799204;79;22373;-78
2020/12/09 11:04:51;;;;;;;50.88;21.20;;;;;;;-4.33;83.72;100372.41;1799174;79;21025;-78
2020/12/09 11:07:21;;;;;;;57.08;23.67;;;;;;;-4.32;83.65;100369.22;1799133;79;21021;-78
2020/12/09 11:09:49;;;;;;;58.83;24.57;;;;;;;-4.30;83.84;100375.72;1799177;79;21645;-80
2020/12/09 11:12:18;;;;;;;52.95;20.95;;;;;;;-4.26;83.88;100368.42;1799099;79;21060;-79
2020/12/09 11:14:45;;;;;;;60.98;24.00;;;;;;;-4.25;83.82;100367.40;1799101;79;21137;-79
2020/12/09 11:17:13;;;;;;;60.88;23.27;;;;;;;-4.22;83.55;100371.53;1799078;79;21115;-78
2020/12/09 11:19:40;;;;;;;50.58;20.90;;;;;;;-4.23;83.41;100361.84;1799052;79;20989;-79
2020/12/09 11:22:08;;;;;;;48.70;21.70;;;;;;;-4.24;83.29;100365.03;1799112;79;21241;-79
2020/12/09 11:24:35;;;;;;;65.83;24.87;;;;;;;-4.24;83.30;100362.34;1799143;79;20926;-79
2020/12/09 11:27:04;;;;;;;57.00;22.37;;;;;;;-4.25;83.95;100363.38;1799057;79;21202;-78
2020/12/09 11:29:32;;;;;;;60.08;24.92;;;;;;;-4.24;83.90;100365.03;1799183;79;21579;-79